createdAt,value
2019-02-19T00:00:20.932Z,5.33
2019-02-19T00:01:20.837Z,5.32
2019-02-19T00:02:20.751Z,5.44
2019-02-19T00:03:20.761Z,5.24
2019-02-19T00:04:20.532Z,5.42
2019-02-19T00:05:20.438Z,5.48
2019-02-19T00:06:20.336Z,5.41
2019-02-19T00:07:20.253Z,5.45
2019-02-19T00:08:20.135Z,5.45
2019-02-19T00:09:20.030Z,5.42
2019-02-19T00:10:19.993Z,5.22
2019-02-19T00:11:19.833Z,5.11
2019-02-19T00:12:19.750Z,5.05
2019-02-19T00:13:19.632Z,4.99
2019-02-19T00:14:19.533Z,4.90
2019-02-19T00:15:19.430Z,4.69
2019-02-19T00:16:19.334Z,4.61
2019-02-19T00:17:19.232Z,4.53
2019-02-19T00:18:19.149Z,4.26
2019-02-19T00:19:19.037Z,4.39
2019-02-19T00:20:18.929Z,4.35
2019-02-19T00:21:18.829Z,4.54
2019-02-19T00:22:18.740Z,4.59
2019-02-19T00:23:18.649Z,4.62
2019-02-19T00:24:18.536Z,4.59
2019-02-19T00:25:18.432Z,4.59
2019-02-19T00:26:18.332Z,4.54
2019-02-19T00:27:18.231Z,4.79
2019-02-19T00:28:18.145Z,4.96
2019-02-19T00:29:18.025Z,4.86
2019-02-19T00:30:17.931Z,4.94
2019-02-19T00:31:17.829Z,5.02
2019-02-19T00:32:17.732Z,5.05
2019-02-19T00:33:17.650Z,4.99
2019-02-19T00:34:17.528Z,5.04
2019-02-19T00:35:17.427Z,5.23
2019-02-19T00:36:17.325Z,5.30
2019-02-19T00:37:17.229Z,5.19
2019-02-19T00:38:17.145Z,5.14
2019-02-19T00:39:17.027Z,5.06
2019-02-19T00:40:16.925Z,4.96
2019-02-19T00:41:16.826Z,4.88
2019-02-19T00:42:16.726Z,4.75
2019-02-19T00:43:16.661Z,4.67
2019-02-19T00:44:16.525Z,4.86
2019-02-19T00:45:17.010Z,4.84
2019-02-19T00:46:16.322Z,4.74
2019-02-19T00:47:16.224Z,4.88
2019-02-19T00:48:16.139Z,4.97
2019-02-19T00:49:16.026Z,4.86
2019-02-19T00:50:15.927Z,4.88
2019-02-19T00:51:15.824Z,4.93
2019-02-19T00:52:15.723Z,4.94
2019-02-19T00:53:15.644Z,4.91
2019-02-19T00:54:15.520Z,4.91
2019-02-19T00:55:15.422Z,5.06
2019-02-19T00:56:15.320Z,4.96
2019-02-19T00:57:15.218Z,5.02
2019-02-19T00:58:15.139Z,4.97
2019-02-19T00:59:15.017Z,5.02
2019-02-19T01:00:14.918Z,5.01
2019-02-19T01:01:14.817Z,4.99
2019-02-19T01:02:14.720Z,5.05
2019-02-19T01:03:14.633Z,5.11
2019-02-19T01:04:14.520Z,5.01
2019-02-19T01:05:14.416Z,5.02
2019-02-19T01:06:14.322Z,5.20
2019-02-19T01:07:14.218Z,5.30
2019-02-19T01:08:14.131Z,5.23
2019-02-19T01:09:14.014Z,5.20
2019-02-19T01:10:13.914Z,5.22
2019-02-19T01:11:13.815Z,5.15
2019-02-19T01:12:13.719Z,5.15
2019-02-19T01:13:13.731Z,5.15
2019-02-19T01:14:13.515Z,5.14
2019-02-19T01:15:13.415Z,5.20
2019-02-19T01:16:13.313Z,5.12
2019-02-19T01:17:13.213Z,5.27
2019-02-19T01:18:13.129Z,5.09
2019-02-19T01:19:13.013Z,5.14
2019-02-19T01:20:12.911Z,4.99
2019-02-19T01:21:12.810Z,5.02
2019-02-19T01:22:12.712Z,4.96
2019-02-19T01:23:12.630Z,5.02
2019-02-19T01:24:12.513Z,5.01
2019-02-19T01:25:12.410Z,5.05
2019-02-19T01:26:12.312Z,5.09
2019-02-19T01:27:12.317Z,5.04
2019-02-19T01:28:12.128Z,5.02
2019-02-19T01:29:12.010Z,5.11
2019-02-19T01:30:11.914Z,5.12
2019-02-19T01:31:11.811Z,5.09
2019-02-19T01:32:11.708Z,5.11
2019-02-19T01:33:11.627Z,5.20
2019-02-19T01:34:11.614Z,5.11
2019-02-19T01:35:11.413Z,5.01
2019-02-19T01:36:11.306Z,4.97
2019-02-19T01:37:11.209Z,4.93
2019-02-19T01:38:11.123Z,4.96
2019-02-19T01:39:11.011Z,4.94
2019-02-19T01:40:10.912Z,4.96
2019-02-19T01:41:10.924Z,4.75
2019-02-19T01:42:10.708Z,4.71
2019-02-19T01:43:10.628Z,4.80
2019-02-19T01:44:10.504Z,4.75
2019-02-19T01:45:10.405Z,4.86
2019-02-19T01:46:10.306Z,4.87
2019-02-19T01:47:10.203Z,4.93
2019-02-19T01:48:10.220Z,4.83
2019-02-19T01:49:10.005Z,4.75
2019-02-19T01:50:09.906Z,4.68
2019-02-19T01:51:09.803Z,4.68
2019-02-19T01:52:09.705Z,4.65
2019-02-19T01:53:09.630Z,4.64
2019-02-19T01:54:09.500Z,4.53
2019-02-19T01:55:09.514Z,4.36
2019-02-19T01:56:09.295Z,4.43
2019-02-19T01:57:09.205Z,4.38
2019-02-19T01:58:09.114Z,4.38
2019-02-19T01:59:09.001Z,4.28
2019-02-19T02:00:08.899Z,4.24
2019-02-19T02:01:08.797Z,4.13
2019-02-19T02:02:08.796Z,4.13
2019-02-19T02:03:08.617Z,4.02
2019-02-19T02:04:08.496Z,4.00
2019-02-19T02:05:08.395Z,4.07
2019-02-19T02:06:08.296Z,3.99
2019-02-19T02:07:08.197Z,3.89
2019-02-19T02:08:08.096Z,4.02
2019-02-19T02:09:08.100Z,4.02
2019-02-19T02:10:07.894Z,4.14
2019-02-19T02:11:07.791Z,4.13
2019-02-19T02:12:07.694Z,3.99
2019-02-19T02:13:07.591Z,3.88
2019-02-19T02:14:07.505Z,4.00
2019-02-19T02:15:07.391Z,4.06
2019-02-19T02:16:07.394Z,3.98
2019-02-19T02:17:07.187Z,3.84
2019-02-19T02:18:07.091Z,3.88
2019-02-19T02:19:07.003Z,3.88
2019-02-19T02:20:06.884Z,3.81
2019-02-19T02:21:06.791Z,3.78
2019-02-19T02:22:06.687Z,3.77
2019-02-19T02:23:06.687Z,3.71
2019-02-19T02:24:06.506Z,3.68
2019-02-19T02:25:06.381Z,3.62
2019-02-19T02:26:06.282Z,3.60
2019-02-19T02:27:06.180Z,3.57
2019-02-19T02:28:06.081Z,3.54
2019-02-19T02:29:05.994Z,3.50
2019-02-19T02:30:05.979Z,3.53
2019-02-19T02:31:05.782Z,3.54
2019-02-19T02:32:05.677Z,3.28
2019-02-19T02:33:05.577Z,3.31
2019-02-19T02:34:05.489Z,3.34
2019-02-19T02:35:05.374Z,3.30
2019-02-19T02:36:05.400Z,3.25
2019-02-19T02:37:05.174Z,3.19
2019-02-19T02:38:05.080Z,3.19
2019-02-19T02:39:04.988Z,3.42
2019-02-19T02:40:04.870Z,3.41
2019-02-19T02:41:04.770Z,3.54
2019-02-19T02:42:04.669Z,3.46
2019-02-19T02:43:04.567Z,3.53
2019-02-19T02:44:04.487Z,3.41
2019-02-19T02:45:04.376Z,3.31
2019-02-19T02:46:04.265Z,3.37
2019-02-19T02:47:04.166Z,3.28
2019-02-19T02:48:04.064Z,3.22
2019-02-19T02:49:03.980Z,3.22
2019-02-19T02:50:03.861Z,3.16
2019-02-19T02:51:03.760Z,3.15
2019-02-19T02:52:03.657Z,3.02
2019-02-19T02:53:03.559Z,2.87
2019-02-19T02:54:03.474Z,2.83
2019-02-19T02:55:03.356Z,2.65
2019-02-19T02:56:03.254Z,2.58
2019-02-19T02:57:03.156Z,2.53
2019-02-19T02:58:03.051Z,2.56
2019-02-19T02:59:02.968Z,2.50
2019-02-19T03:00:02.850Z,2.50
2019-02-19T03:01:02.749Z,2.48
2019-02-19T03:02:02.647Z,2.51
2019-02-19T03:03:02.547Z,2.68
2019-02-19T03:04:02.462Z,2.63
2019-02-19T03:05:02.346Z,2.59
2019-02-19T03:06:02.245Z,2.53
2019-02-19T03:07:02.141Z,2.41
2019-02-19T03:08:02.042Z,2.37
2019-02-19T03:09:01.956Z,2.56
2019-02-19T03:10:01.840Z,2.66
2019-02-19T03:11:01.740Z,2.62
2019-02-19T03:12:01.636Z,2.69
2019-02-19T03:13:01.534Z,2.68
2019-02-19T03:14:01.455Z,2.55
2019-02-19T03:15:01.331Z,2.41
2019-02-19T03:16:02.644Z,2.41
2019-02-19T03:17:01.130Z,2.33
2019-02-19T03:18:01.026Z,2.33
2019-02-19T03:19:00.945Z,2.45
2019-02-19T03:20:00.977Z,2.29
2019-02-19T03:21:00.726Z,2.47
2019-02-19T03:22:00.624Z,2.50
2019-02-19T03:23:00.524Z,2.50
2019-02-19T03:24:00.454Z,2.50
2019-02-19T03:25:00.384Z,2.51
2019-02-19T03:26:00.216Z,2.66
2019-02-19T03:27:00.123Z,2.65
2019-02-19T03:28:00.013Z,2.65
2019-02-19T03:28:59.929Z,2.58
2019-02-19T03:29:59.814Z,2.53
2019-02-19T03:30:59.715Z,2.56
2019-02-19T03:31:59.613Z,2.61
2019-02-19T03:32:59.511Z,2.59
2019-02-19T03:33:59.420Z,2.66
2019-02-19T03:34:59.302Z,2.66
2019-02-19T03:35:59.200Z,2.76
2019-02-19T03:36:59.098Z,2.71
2019-02-19T03:37:59.002Z,2.62
2019-02-19T03:38:59.015Z,2.61
2019-02-19T03:39:58.795Z,2.58
2019-02-19T03:40:58.695Z,2.61
2019-02-19T03:41:58.593Z,2.47
2019-02-19T03:42:58.493Z,2.53
2019-02-19T03:43:58.405Z,2.37
2019-02-19T03:44:58.289Z,2.33
2019-02-19T03:45:58.193Z,2.27
2019-02-19T03:46:58.084Z,2.14
2019-02-19T03:47:57.985Z,2.27
2019-02-19T03:48:57.887Z,2.32
2019-02-19T03:49:57.797Z,2.15
2019-02-19T03:50:57.680Z,2.20
2019-02-19T03:51:57.577Z,2.18
2019-02-19T03:52:57.589Z,2.07
2019-02-19T03:53:57.374Z,2.09
2019-02-19T03:54:57.289Z,2.02
2019-02-19T03:55:57.166Z,2.12
2019-02-19T03:56:57.068Z,2.18
2019-02-19T03:57:56.967Z,2.08
2019-02-19T03:58:56.873Z,2.12
2019-02-19T03:59:56.881Z,2.07
2019-02-19T04:00:56.661Z,1.95
2019-02-19T04:01:56.578Z,1.83
2019-02-19T04:02:56.460Z,1.64
2019-02-19T04:03:56.360Z,1.68
2019-02-19T04:04:56.269Z,1.57
2019-02-19T04:05:56.151Z,1.60
2019-02-19T04:06:56.175Z,1.67
2019-02-19T04:07:55.945Z,1.74
2019-02-19T04:08:55.850Z,1.68
2019-02-19T04:09:55.758Z,1.60
2019-02-19T04:10:55.643Z,1.57
2019-02-19T04:11:55.545Z,1.71
2019-02-19T04:12:55.435Z,1.71
2019-02-19T04:13:55.438Z,1.70
2019-02-19T04:14:55.253Z,1.75
2019-02-19T04:15:55.132Z,1.67
2019-02-19T04:16:55.033Z,1.63
2019-02-19T04:17:54.936Z,1.43
2019-02-19T04:18:54.828Z,1.39
2019-02-19T04:19:54.740Z,1.34
2019-02-19T04:20:54.716Z,1.35
2019-02-19T04:21:54.523Z,1.32
2019-02-19T04:22:54.423Z,1.24
2019-02-19T04:23:54.317Z,1.29
2019-02-19T04:24:54.231Z,1.26
2019-02-19T04:25:54.116Z,1.43
2019-02-19T04:26:54.008Z,1.25
2019-02-19T04:27:54.011Z,1.36
2019-02-19T04:28:53.807Z,1.36
2019-02-19T04:29:53.719Z,1.49
2019-02-19T04:30:53.601Z,1.56
2019-02-19T04:31:53.498Z,1.53
2019-02-19T04:32:53.406Z,1.61
2019-02-19T04:33:53.297Z,1.60
2019-02-19T04:34:53.313Z,1.54
2019-02-19T04:35:53.094Z,1.60
2019-02-19T04:36:52.994Z,1.49
2019-02-19T04:37:52.901Z,1.46
2019-02-19T04:38:52.786Z,1.38
2019-02-19T04:39:52.700Z,1.49
2019-02-19T04:40:52.582Z,1.53
2019-02-19T04:41:52.584Z,1.98
2019-02-19T04:42:52.385Z,2.05
2019-02-19T04:43:52.274Z,2.04
2019-02-19T04:44:52.188Z,1.98
2019-02-19T04:45:52.074Z,1.95
2019-02-19T04:46:51.971Z,1.83
2019-02-19T04:47:51.870Z,1.85
2019-02-19T04:48:51.876Z,1.86
2019-02-19T04:49:51.679Z,1.83
2019-02-19T04:50:51.561Z,1.72
2019-02-19T04:51:51.461Z,1.83
2019-02-19T04:52:51.357Z,1.88
2019-02-19T04:53:51.254Z,1.82
2019-02-19T04:54:51.172Z,1.88
2019-02-19T04:55:51.152Z,1.75
2019-02-19T04:56:50.948Z,1.85
2019-02-19T04:57:50.854Z,1.86
2019-02-19T04:58:50.747Z,1.85
2019-02-19T04:59:50.658Z,1.83
2019-02-19T05:00:50.545Z,1.67
2019-02-19T05:01:50.440Z,1.72
2019-02-19T05:02:51.622Z,1.65
2019-02-19T05:03:50.233Z,1.64
2019-02-19T05:04:50.151Z,1.70
2019-02-19T05:05:50.031Z,1.74
2019-02-19T05:06:49.929Z,1.88
2019-02-19T05:07:49.827Z,1.83
2019-02-19T05:08:49.726Z,2.07
2019-02-19T05:09:49.647Z,2.00
2019-02-19T05:10:49.522Z,2.04
2019-02-19T05:11:49.421Z,2.00
2019-02-19T05:12:49.315Z,1.93
2019-02-19T05:13:49.216Z,1.86
2019-02-19T05:14:49.113Z,1.71
2019-02-19T05:15:49.036Z,1.57
2019-02-19T05:16:48.914Z,1.49
2019-02-19T05:17:48.810Z,1.38
2019-02-19T05:18:48.705Z,1.49
2019-02-19T05:19:48.614Z,1.43
2019-02-19T05:20:48.514Z,1.49
2019-02-19T05:21:48.399Z,1.56
2019-02-19T05:22:48.295Z,1.39
2019-02-19T05:23:48.191Z,1.50
2019-02-19T05:24:48.094Z,1.63
2019-02-19T05:25:48.004Z,1.67
2019-02-19T05:26:47.887Z,1.71
2019-02-19T05:27:47.785Z,1.70
2019-02-19T05:28:47.682Z,1.71
2019-02-19T05:29:47.580Z,1.77
2019-02-19T05:30:47.494Z,1.82
2019-02-19T05:31:47.378Z,1.79
2019-02-19T05:32:47.281Z,1.68
2019-02-19T05:33:47.176Z,1.61
2019-02-19T05:34:47.069Z,1.68
2019-02-19T05:35:46.984Z,1.70
2019-02-19T05:36:46.868Z,1.63
2019-02-19T05:37:46.764Z,1.67
2019-02-19T05:38:46.660Z,1.67
2019-02-19T05:39:46.558Z,1.72
2019-02-19T05:40:46.476Z,1.63
2019-02-19T05:41:46.356Z,1.70
2019-02-19T05:42:46.255Z,1.67
2019-02-19T05:43:46.152Z,1.70
2019-02-19T05:44:46.052Z,1.64
2019-02-19T05:45:45.965Z,1.68
2019-02-19T05:46:49.899Z,1.63
2019-02-19T05:47:45.744Z,1.64
2019-02-19T05:48:45.640Z,1.74
2019-02-19T05:49:45.538Z,1.65
2019-02-19T05:50:45.443Z,1.82
2019-02-19T05:51:45.356Z,1.81
2019-02-19T05:52:45.232Z,1.74
2019-02-19T05:53:45.135Z,1.82
2019-02-19T05:54:45.029Z,1.65
2019-02-19T05:55:44.928Z,1.67
2019-02-19T05:56:44.846Z,1.67
2019-02-19T05:57:44.722Z,1.64
2019-02-19T05:58:44.622Z,1.46
2019-02-19T05:59:44.525Z,1.52
2019-02-19T06:00:44.420Z,1.56
2019-02-19T06:01:44.331Z,1.50
2019-02-19T06:02:44.234Z,1.35
2019-02-19T06:03:44.111Z,1.34
2019-02-19T06:04:44.007Z,1.32
2019-02-19T06:05:43.908Z,1.26
2019-02-19T06:06:43.822Z,1.25
2019-02-19T06:07:43.705Z,1.16
2019-02-19T06:08:43.605Z,1.10
2019-02-19T06:09:43.503Z,1.18
2019-02-19T06:10:44.261Z,1.29
2019-02-19T06:11:43.311Z,1.25
2019-02-19T06:12:43.193Z,1.18
2019-02-19T06:13:43.091Z,1.28
2019-02-19T06:14:42.989Z,0.98
2019-02-19T06:15:42.897Z,0.92
2019-02-19T06:16:42.798Z,0.75
2019-02-19T06:17:42.683Z,0.56
2019-02-19T06:18:42.577Z,0.57
2019-02-19T06:19:42.501Z,0.53
2019-02-19T06:20:42.377Z,0.77
2019-02-19T06:21:42.289Z,0.86
2019-02-19T06:22:42.170Z,0.93
2019-02-19T06:23:42.068Z,0.96
2019-02-19T06:24:41.968Z,0.93
2019-02-19T06:25:41.865Z,1.26
2019-02-19T06:26:41.885Z,1.38
2019-02-19T06:27:41.664Z,1.50
2019-02-19T06:28:41.561Z,1.68
2019-02-19T06:29:41.455Z,1.61
2019-02-19T06:30:41.356Z,1.68
2019-02-19T06:31:41.266Z,1.71
2019-02-19T06:32:41.152Z,1.85
2019-02-19T06:33:41.051Z,1.83
2019-02-19T06:34:40.950Z,1.93
2019-02-19T06:35:40.844Z,1.88
2019-02-19T06:36:40.742Z,1.71
2019-02-19T06:37:40.657Z,1.71
2019-02-19T06:38:40.536Z,1.50
2019-02-19T06:39:40.434Z,1.43
2019-02-19T06:40:40.449Z,1.36
2019-02-19T06:41:40.252Z,1.28
2019-02-19T06:42:40.130Z,1.17
2019-02-19T06:43:40.023Z,1.02
2019-02-19T06:44:39.925Z,0.89
2019-02-19T06:45:39.829Z,0.86
2019-02-19T06:46:39.722Z,0.80
2019-02-19T06:47:39.747Z,0.72
2019-02-19T06:48:39.522Z,0.77
2019-02-19T06:49:39.414Z,0.64
2019-02-19T06:50:39.311Z,0.75
2019-02-19T06:51:39.210Z,0.64
2019-02-19T06:52:39.124Z,0.77
2019-02-19T06:53:39.008Z,0.92
2019-02-19T06:54:39.009Z,0.98
2019-02-19T06:55:38.803Z,0.99
2019-02-19T06:56:38.702Z,1.04
2019-02-19T06:57:38.618Z,0.96
2019-02-19T06:58:38.498Z,1.07
2019-02-19T06:59:38.396Z,0.93
2019-02-19T07:00:38.292Z,1.04
2019-02-19T07:01:38.294Z,1.24
2019-02-19T07:02:38.104Z,1.24
2019-02-19T07:03:37.984Z,1.20
2019-02-19T07:04:37.885Z,1.11
2019-02-19T07:05:37.780Z,1.35
2019-02-19T07:06:37.682Z,1.39
2019-02-19T07:07:37.593Z,1.44
2019-02-19T07:08:37.578Z,1.63
2019-02-19T07:09:37.374Z,1.85
2019-02-19T07:10:37.338Z,1.92
2019-02-19T07:11:37.177Z,2.07
2019-02-19T07:12:37.086Z,2.11
2019-02-19T07:13:36.969Z,2.22
2019-02-19T07:14:36.865Z,2.14
2019-02-19T07:15:36.869Z,2.15
2019-02-19T07:16:36.664Z,2.36
2019-02-19T07:17:36.590Z,2.45
2019-02-19T07:18:36.459Z,2.59
2019-02-19T07:19:36.357Z,2.79
2019-02-19T07:20:36.260Z,3.04
2019-02-19T07:21:36.161Z,3.08
2019-02-19T07:22:36.174Z,3.26
2019-02-19T07:23:35.955Z,3.45
2019-02-19T07:24:35.858Z,3.60
2019-02-19T07:25:35.753Z,3.71
2019-02-19T07:26:35.654Z,3.78
2019-02-19T07:27:35.570Z,4.07
2019-02-19T07:28:35.453Z,4.18
2019-02-19T07:29:35.452Z,4.46
2019-02-19T07:30:35.250Z,4.64
2019-02-19T07:31:35.151Z,5.01
2019-02-19T07:32:35.066Z,5.30
2019-02-19T07:33:34.951Z,5.51
2019-02-19T07:34:34.850Z,5.58
2019-02-19T07:35:34.749Z,5.52
2019-02-19T07:36:34.774Z,5.52
2019-02-19T07:37:34.552Z,5.63
2019-02-19T07:38:34.475Z,5.66
2019-02-19T07:39:34.353Z,5.85
2019-02-19T07:40:34.252Z,6.05
2019-02-19T07:41:34.156Z,6.25
2019-02-19T07:42:34.196Z,6.40
2019-02-19T07:43:33.958Z,6.40
2019-02-19T07:44:33.858Z,6.58
2019-02-19T07:45:33.763Z,6.51
2019-02-19T07:46:33.665Z,6.53
2019-02-19T07:47:33.565Z,6.57
2019-02-19T07:48:33.479Z,6.61
2019-02-19T07:49:33.366Z,6.79
2019-02-19T07:50:33.273Z,6.94
2019-02-19T07:51:33.171Z,6.94
2019-02-19T07:52:33.078Z,7.04
2019-02-19T07:53:32.998Z,7.08
2019-02-19T07:54:32.879Z,6.90
2019-02-19T07:55:33.040Z,7.08
2019-02-19T07:56:32.685Z,7.30
2019-02-19T07:57:32.589Z,7.36
2019-02-19T07:58:32.512Z,7.39
2019-02-19T07:59:32.400Z,7.32
2019-02-19T08:00:32.302Z,7.33
2019-02-19T08:01:32.206Z,7.39
2019-02-19T08:02:32.109Z,7.41
2019-02-19T08:03:32.027Z,7.41
2019-02-19T08:04:31.914Z,7.26
2019-02-19T08:05:31.824Z,7.48
2019-02-19T08:06:31.722Z,7.63
2019-02-19T08:07:31.629Z,7.41
2019-02-19T08:08:31.548Z,7.55
2019-02-19T08:09:31.438Z,7.47
2019-02-19T08:10:31.343Z,7.51
2019-02-19T08:11:31.246Z,7.55
2019-02-19T08:12:31.151Z,7.69
2019-02-19T08:13:31.071Z,7.66
2019-02-19T08:14:30.959Z,7.67
2019-02-19T08:15:30.879Z,7.99
2019-02-19T08:16:30.771Z,7.96
2019-02-19T08:17:33.352Z,7.91
2019-02-19T08:18:30.599Z,7.95
2019-02-19T08:19:30.486Z,8.29
2019-02-19T08:20:30.393Z,8.65
2019-02-19T08:21:30.300Z,8.70
2019-02-19T08:22:30.205Z,8.46
2019-02-19T08:23:30.113Z,8.67
2019-02-19T08:24:30.045Z,8.57
2019-02-19T08:25:29.927Z,8.58
2019-02-19T08:26:29.831Z,8.64
2019-02-19T08:27:29.733Z,8.67
2019-02-19T08:28:29.642Z,8.73
2019-02-19T08:29:29.600Z,8.96
2019-02-19T08:30:29.454Z,8.82
2019-02-19T08:31:29.358Z,8.28
2019-02-19T08:32:29.265Z,8.29
2019-02-19T08:33:29.173Z,8.29
2019-02-19T08:34:29.096Z,7.94
2019-02-19T08:35:28.987Z,8.04
2019-02-19T08:36:29.781Z,8.21
2019-02-19T08:37:28.805Z,8.50
2019-02-19T08:38:28.711Z,9.01
2019-02-19T08:39:28.628Z,8.68
2019-02-19T08:40:28.525Z,9.06
2019-02-19T08:41:28.426Z,8.63
2019-02-19T08:42:28.339Z,8.65
2019-02-19T08:43:28.241Z,9.10
2019-02-19T08:44:28.165Z,9.22
2019-02-19T08:45:28.056Z,9.26
2019-02-19T08:46:27.964Z,9.26
2019-02-19T08:47:27.881Z,9.23
2019-02-19T08:48:27.781Z,8.88
2019-02-19T08:49:27.703Z,8.96
2019-02-19T08:50:27.594Z,8.88
2019-02-19T08:51:27.500Z,9.20
2019-02-19T08:52:27.510Z,9.20
2019-02-19T08:53:27.318Z,9.32
2019-02-19T08:54:27.237Z,9.73
2019-02-19T08:55:27.128Z,9.78
2019-02-19T08:56:27.039Z,9.81
2019-02-19T08:57:26.949Z,9.59
2019-02-19T08:58:26.853Z,9.45
2019-02-19T08:59:26.779Z,9.37
2019-02-19T09:00:26.670Z,9.50
2019-02-19T09:01:26.577Z,9.59
2019-02-19T09:02:26.486Z,9.70
2019-02-19T09:03:26.391Z,9.95
2019-02-19T09:04:26.319Z,10.26
2019-02-19T09:05:26.213Z,10.22
2019-02-19T09:06:27.622Z,10.39
2019-02-19T09:07:26.027Z,10.24
2019-02-19T09:08:25.940Z,9.78
2019-02-19T09:09:25.860Z,10.07
2019-02-19T09:10:25.756Z,10.07
2019-02-19T09:11:25.663Z,10.10
2019-02-19T09:12:25.574Z,10.11
2019-02-19T09:13:25.584Z,10.22
2019-02-19T09:14:25.403Z,10.28
2019-02-19T09:15:25.294Z,10.29
2019-02-19T09:16:25.207Z,10.18
2019-02-19T09:17:25.113Z,9.50
2019-02-19T09:18:25.023Z,9.35
2019-02-19T09:19:24.949Z,9.49
2019-02-19T09:20:24.943Z,9.35
2019-02-19T09:21:24.750Z,9.00
2019-02-19T09:22:24.660Z,9.19
2019-02-19T09:23:24.564Z,9.24
2019-02-19T09:24:24.490Z,9.10
2019-02-19T09:25:24.383Z,9.27
2019-02-19T09:26:24.293Z,9.20
2019-02-19T09:27:24.319Z,9.56
2019-02-19T09:28:24.107Z,10.10
2019-02-19T09:29:24.020Z,10.01
2019-02-19T09:30:23.946Z,9.48
2019-02-19T09:31:23.832Z,9.71
2019-02-19T09:32:23.745Z,9.86
2019-02-19T09:33:23.648Z,9.60
2019-02-19T09:34:23.660Z,10.06
2019-02-19T09:35:23.482Z,9.83
2019-02-19T09:36:23.374Z,10.26
2019-02-19T09:37:23.294Z,9.91
2019-02-19T09:38:23.200Z,10.18
2019-02-19T09:39:23.101Z,10.29
2019-02-19T09:40:23.024Z,10.18
2019-02-19T09:41:23.021Z,10.34
2019-02-19T09:42:22.825Z,10.99
2019-02-19T09:43:22.730Z,10.91
2019-02-19T09:44:22.642Z,10.39
2019-02-19T09:45:22.566Z,9.99
2019-02-19T09:46:22.456Z,9.60
2019-02-19T09:47:22.367Z,9.70
2019-02-19T09:48:22.393Z,9.59
2019-02-19T09:49:22.186Z,9.38
2019-02-19T09:50:22.111Z,9.35
2019-02-19T09:51:22.001Z,9.24
2019-02-19T09:52:21.911Z,8.65
2019-02-19T09:53:21.817Z,8.40
2019-02-19T09:54:21.728Z,8.45
2019-02-19T09:55:21.755Z,8.18
2019-02-19T09:56:21.545Z,7.81
2019-02-19T09:57:21.454Z,7.57
2019-02-19T09:58:21.370Z,7.45
2019-02-19T09:59:21.265Z,7.29
2019-02-19T10:00:21.189Z,7.08
2019-02-19T10:01:21.085Z,7.18
2019-02-19T10:02:21.088Z,7.01
2019-02-19T10:03:20.894Z,6.82
2019-02-19T10:04:20.804Z,6.91
2019-02-19T10:05:20.723Z,6.89
2019-02-19T10:06:20.630Z,6.82
2019-02-19T10:07:20.521Z,6.89
2019-02-19T10:08:20.437Z,6.89
2019-02-19T10:09:20.440Z,6.89
2019-02-19T10:10:20.254Z,6.79
2019-02-19T10:11:20.144Z,6.73
2019-02-19T10:12:20.045Z,6.78
2019-02-19T10:13:19.952Z,6.71
2019-02-19T10:14:19.855Z,6.64
2019-02-19T10:15:19.779Z,6.61
2019-02-19T10:16:19.764Z,6.71
2019-02-19T10:17:19.570Z,6.71
2019-02-19T10:18:19.473Z,6.89
2019-02-19T10:19:19.377Z,6.86
2019-02-19T10:20:19.295Z,6.93
2019-02-19T10:21:19.189Z,6.90
2019-02-19T10:22:19.092Z,7.00
2019-02-19T10:23:18.994Z,7.09
2019-02-19T10:24:18.898Z,7.15
2019-02-19T10:25:18.823Z,7.19
2019-02-19T10:26:18.709Z,7.16
2019-02-19T10:27:18.612Z,7.23
2019-02-19T10:28:18.515Z,7.37
2019-02-19T10:29:18.423Z,7.37
2019-02-19T10:30:18.342Z,7.34
2019-02-19T10:31:18.228Z,7.55
2019-02-19T10:32:18.139Z,7.54
2019-02-19T10:33:18.037Z,7.58
2019-02-19T10:34:17.943Z,7.81
2019-02-19T10:35:17.861Z,7.76
2019-02-19T10:36:17.853Z,8.02
2019-02-19T10:37:17.656Z,8.06
2019-02-19T10:38:17.558Z,7.99
2019-02-19T10:39:17.463Z,7.91
2019-02-19T10:40:17.384Z,7.86
2019-02-19T10:41:17.272Z,7.96
2019-02-19T10:42:18.940Z,7.96
2019-02-19T10:43:17.080Z,7.88
2019-02-19T10:44:17.283Z,8.32
2019-02-19T10:45:16.905Z,8.40
2019-02-19T10:46:16.794Z,8.45
2019-02-19T10:47:16.698Z,8.88
2019-02-19T10:48:18.976Z,9.52
2019-02-19T10:49:16.510Z,9.71
2019-02-19T10:50:16.433Z,10.88
2019-02-19T10:51:16.319Z,11.56
2019-02-19T10:52:16.222Z,12.04
2019-02-19T10:53:16.128Z,12.63
2019-02-19T10:54:16.080Z,12.52
2019-02-19T10:55:15.955Z,13.16
2019-02-19T10:56:15.846Z,13.73
2019-02-19T10:57:15.756Z,13.65
2019-02-19T10:58:22.544Z,13.61
2019-02-19T10:59:15.568Z,13.90
2019-02-19T11:00:15.493Z,13.86
2019-02-19T11:01:15.381Z,13.62
2019-02-19T11:02:15.293Z,13.32
2019-02-19T11:03:15.200Z,13.01
2019-02-19T11:04:15.106Z,12.85
2019-02-19T11:05:15.034Z,12.67
2019-02-19T11:06:14.927Z,12.58
2019-02-19T11:07:14.836Z,12.44
2019-02-19T11:08:14.742Z,12.12
2019-02-19T11:09:14.656Z,12.18
2019-02-19T11:10:14.566Z,11.75
2019-02-19T11:11:14.487Z,11.59
2019-02-19T11:12:14.380Z,11.36
2019-02-19T11:13:14.288Z,11.27
2019-02-19T11:14:14.200Z,11.05
2019-02-19T11:15:14.121Z,11.27
2019-02-19T11:16:14.019Z,11.30
2019-02-19T11:17:13.923Z,11.24
2019-02-19T11:18:13.843Z,11.72
2019-02-19T11:19:13.755Z,11.51
2019-02-19T11:20:13.651Z,11.38
2019-02-19T11:21:19.522Z,11.08
2019-02-19T11:22:13.696Z,10.75
2019-02-19T11:23:13.376Z,10.58
2019-02-19T11:24:13.286Z,10.49
2019-02-19T11:25:13.195Z,10.32
2019-02-19T11:26:13.120Z,10.06
2019-02-19T11:27:13.008Z,9.86
2019-02-19T11:28:12.922Z,9.92
2019-02-19T11:29:12.828Z,10.09
2019-02-19T11:30:12.739Z,9.96
2019-02-19T11:31:12.656Z,9.75
2019-02-19T11:32:12.554Z,9.42
2019-02-19T11:33:12.461Z,9.34
2019-02-19T11:34:12.732Z,9.23
2019-02-19T11:35:12.270Z,9.19
2019-02-19T11:36:12.193Z,9.13
2019-02-19T11:37:12.091Z,9.06
2019-02-19T11:38:11.997Z,8.91
2019-02-19T11:39:11.902Z,8.79
2019-02-19T11:40:11.924Z,9.01
2019-02-19T11:41:11.727Z,9.00
2019-02-19T11:42:11.619Z,9.01
2019-02-19T11:43:11.523Z,8.93
2019-02-19T11:44:11.433Z,8.89
2019-02-19T11:45:11.335Z,8.65
2019-02-19T11:46:11.261Z,8.65
2019-02-19T11:47:11.250Z,8.65
2019-02-19T11:48:11.054Z,8.70
2019-02-19T11:49:10.961Z,8.54
2019-02-19T11:50:10.864Z,8.54
2019-02-19T11:51:10.789Z,8.46
2019-02-19T11:52:10.676Z,8.50
2019-02-19T11:53:10.581Z,8.40
2019-02-19T11:54:10.584Z,8.34
2019-02-19T11:55:10.389Z,8.28
2019-02-19T11:56:10.310Z,8.31
2019-02-19T11:57:10.200Z,8.22
2019-02-19T11:58:10.104Z,8.20
2019-02-19T11:59:10.009Z,8.28
2019-02-19T12:00:09.918Z,8.24
2019-02-19T12:01:09.941Z,8.20
2019-02-19T12:02:09.725Z,8.10
2019-02-19T12:03:09.628Z,8.03
2019-02-19T12:04:09.533Z,8.10
2019-02-19T12:05:09.436Z,8.03
2019-02-19T12:06:09.354Z,8.00
2019-02-19T12:07:09.245Z,7.94
2019-02-19T12:08:09.265Z,7.86
2019-02-19T12:09:09.053Z,7.89
2019-02-19T12:10:08.959Z,7.79
2019-02-19T12:11:08.880Z,7.82
2019-02-19T12:12:08.765Z,7.81
2019-02-19T12:13:08.669Z,7.76
2019-02-19T12:14:08.573Z,7.71
2019-02-19T12:15:08.576Z,7.63
2019-02-19T12:16:08.398Z,7.62
2019-02-19T12:17:08.290Z,7.73
2019-02-19T12:18:08.207Z,7.71
2019-02-19T12:19:08.095Z,7.70
2019-02-19T12:20:07.994Z,7.60
2019-02-19T12:21:07.914Z,7.60
2019-02-19T12:22:07.904Z,7.67
2019-02-19T12:23:07.707Z,7.69
2019-02-19T12:24:07.614Z,7.82
2019-02-19T12:25:07.514Z,7.73
2019-02-19T12:26:07.435Z,7.74
2019-02-19T12:27:08.877Z,7.70
2019-02-19T12:28:07.225Z,7.67
2019-02-19T12:29:07.226Z,7.55
2019-02-19T12:30:07.033Z,7.74
2019-02-19T12:31:06.953Z,7.58
2019-02-19T12:32:06.839Z,7.63
2019-02-19T12:33:06.747Z,7.67
2019-02-19T12:34:06.648Z,7.47
2019-02-19T12:35:06.553Z,7.58
2019-02-19T12:36:06.573Z,7.47
2019-02-19T12:37:06.356Z,7.45
2019-02-19T12:38:06.258Z,7.57
2019-02-19T12:39:06.160Z,7.62
2019-02-19T12:40:06.067Z,7.50
2019-02-19T12:41:05.986Z,7.39
2019-02-19T12:42:05.871Z,7.41
2019-02-19T12:43:05.880Z,7.30
2019-02-19T12:44:05.682Z,7.27
2019-02-19T12:45:05.582Z,7.29
2019-02-19T12:46:05.500Z,7.34
2019-02-19T12:47:05.389Z,7.33
2019-02-19T12:48:05.291Z,7.27
2019-02-19T12:49:05.195Z,7.11
2019-02-19T12:50:05.098Z,7.18
2019-02-19T12:51:05.018Z,7.18
2019-02-19T12:52:04.910Z,7.14
2019-02-19T12:53:04.806Z,7.07
2019-02-19T12:54:04.712Z,7.09
2019-02-19T12:55:04.611Z,7.09
2019-02-19T12:56:04.535Z,7.07
2019-02-19T12:57:04.421Z,7.07
2019-02-19T12:58:04.322Z,7.01
2019-02-19T12:59:04.226Z,7.07
2019-02-19T13:00:04.130Z,7.09
2019-02-19T13:01:04.032Z,7.04
2019-02-19T13:02:03.949Z,7.11
2019-02-19T13:03:03.837Z,7.15
2019-02-19T13:04:03.839Z,7.05
2019-02-19T13:05:03.644Z,6.94
2019-02-19T13:06:03.552Z,6.91
2019-02-19T13:07:03.469Z,6.86
2019-02-19T13:08:03.351Z,6.89
2019-02-19T13:09:03.258Z,6.83
2019-02-19T13:10:03.280Z,6.73
2019-02-19T13:11:03.063Z,6.79
2019-02-19T13:12:02.981Z,6.82
2019-02-19T13:13:02.864Z,6.87
2019-02-19T13:14:02.766Z,6.93
2019-02-19T13:15:02.674Z,6.91